Time;durP1;ratioP1;P1;durP2;ratioP2;P2;SDS_P1;SDS_P2;PMS_P1;PMS_P2;Temp;Humidity;BMP_temperature;BMP_pressure;BME280_temperature;BME280_humidity;BME280_pressure;Samples;Min_cycle;Max_cycle;Signal;HPM_P1;HPM_P2
2023/03/21 00:00:37;;;;;;;19.42;14.90;;;;;;;11.20;52.95;99546.56;4972791;28;20061;-76
2023/03/21 00:03:02;;;;;;;20.58;14.90;;;;;;;11.19;52.78;99551.03;4972978;28;20023;-76
2023/03/21 00:05:28;;;;;;;19.30;15.23;;;;;;;11.20;52.91;99551.88;4987891;28;20023;-75
2023/03/21 00:07:53;;;;;;;19.98;15.23;;;;;;;10.91;52.36;99507.72;4972982;28;20046;-76
2023/03/21 00:10:19;;;;;;;17.45;15.13;;;;;;;11.13;52.28;99551.75;4972942;28;20504;-76
2023/03/21 00:12:44;;;;;;;21.40;14.48;;;;;;;11.13;52.87;99557.84;4987742;28;20023;-76
2023/03/21 00:15:11;;;;;;;18.98;14.95;;;;;;;11.14;52.44;99550.72;4972806;28;20428;-76
2023/03/21 00:17:38;;;;;;;19.98;15.48;;;;;;;11.08;52.77;99540.91;4972850;28;20058;-76
2023/03/21 00:20:05;;;;;;;18.65;14.02;;;;;;;10.84;52.33;99502.34;4972745;28;20022;-76
2023/03/21 00:22:34;;;;;;;21.23;15.45;;;;;;;10.65;51.73;99473.81;4972753;28;20022;-76
2023/03/21 00:25:00;;;;;;;20.83;15.73;;;;;;;10.68;52.11;99487.47;4972636;28;20052;-76
2023/03/21 00:27:26;;;;;;;17.08;13.77;;;;;;;11.06;52.82;99551.63;4972686;28;20453;-76
2023/03/21 00:29:52;;;;;;;22.02;15.50;;;;;;;10.49;52.56;99466.88;4972601;28;20515;-75
2023/03/21 00:32:20;;;;;;;24.35;15.85;;;;;;;10.95;52.54;99553.91;4972677;28;20027;-76
2023/03/21 00:34:46;;;;;;;17.05;13.63;;;;;;;10.86;52.88;99565.56;4971507;28;20023;-76
2023/03/21 00:37:15;;;;;;;18.65;13.30;;;;;;;10.49;52.75;99495.91;4972568;28;20022;-76
2023/03/21 00:39:42;;;;;;;17.02;13.05;;;;;;;10.54;52.86;99512.03;4976622;28;20530;-76
2023/03/21 00:42:09;;;;;;;20.10;14.05;;;;;;;10.33;52.68;99456.44;4979007;28;20026;-76
2023/03/21 00:44:35;;;;;;;16.83;13.18;;;;;;;10.78;52.66;99517.09;4994061;28;20030;-76
2023/03/21 00:47:04;;;;;;;15.88;11.75;;;;;;;10.90;52.19;99530.66;4979143;28;20018;-76
2023/03/21 00:49:33;;;;;;;17.33;13.18;;;;;;;10.93;52.58;99527.66;4978982;28;20026;-76
2023/03/21 00:51:59;;;;;;;18.15;12.95;;;;;;;10.98;52.45;99516.56;4993918;28;20113;-76
2023/03/21 00:54:25;;;;;;;20.00;13.57;;;;;;;10.94;52.77;99518.75;4978797;28;20033;-76
2023/03/21 00:56:51;;;;;;;16.80;13.07;;;;;;;10.94;52.26;99521.38;4977535;28;20038;-76
2023/03/21 00:59:17;;;;;;;18.27;13.13;;;;;;;10.42;52.58;99434.28;4977323;28;20424;-76
2023/03/21 01:01:42;;;;;;;16.48;13.15;;;;;;;10.57;52.24;99453.59;4977507;28;20403;-76
2023/03/21 01:04:12;;;;;;;18.52;13.13;;;;;;;10.96;52.58;99518.56;4978801;28;20018;-75
2023/03/21 01:06:38;;;;;;;21.20;13.48;;;;;;;10.95;52.73;99515.09;4978681;28;20018;-76
2023/03/21 01:09:04;;;;;;;17.52;13.57;;;;;;;10.93;52.80;99508.34;4978847;28;20034;-76
2023/03/21 01:11:30;;;;;;;18.40;14.27;;;;;;;10.92;52.82;99506.72;4978842;28;20093;-76
2023/03/21 01:13:56;;;;;;;18.63;15.98;;;;;;;10.88;52.81;99508.09;4978714;28;20066;-76
2023/03/21 01:16:22;;;;;;;20.40;15.05;;;;;;;10.93;52.50;99503.06;4977331;28;20019;-76
2023/03/21 01:18:48;;;;;;;18.17;14.23;;;;;;;10.66;53.04;99460.44;4978722;28;20500;-75
2023/03/21 01:21:13;;;;;;;18.83;14.70;;;;;;;10.93;53.33;99490.69;4978611;28;20027;-76
2023/03/21 01:23:40;;;;;;;20.17;14.55;;;;;;;10.91;53.66;99481.31;4978513;28;20420;-76
2023/03/21 01:26:07;;;;;;;21.25;14.77;;;;;;;10.87;52.94;99483.50;4978441;28;20019;-76
2023/03/21 01:28:33;;;;;;;21.65;15.25;;;;;;;10.88;52.93;99484.31;4978624;28;20101;-77
2023/03/21 01:31:01;;;;;;;19.35;14.77;;;;;;;10.84;53.02;99473.28;4977312;28;20026;-76
2023/03/21 01:33:27;;;;;;;20.25;15.10;;;;;;;10.53;53.13;99427.75;4978652;28;20019;-75
2023/03/21 01:35:52;;;;;;;20.23;14.23;;;;;;;10.82;54.02;99483.22;4978295;28;20015;-76
2023/03/21 01:38:18;;;;;;;15.98;13.00;;;;;;;10.78;54.06;99480.13;4978365;28;20034;-75
2023/03/21 01:40:46;;;;;;;16.00;13.85;;;;;;;10.79;53.76;99468.56;4978702;28;20061;-76
2023/03/21 01:43:20;;;;;;;20.38;14.00;;;;;;;10.85;54.11;99467.00;4978312;28;20054;-76
2023/03/21 01:46:19;;;;;;;16.45;13.73;;;;;;;10.85;53.82;99464.38;4978496;28;20077;-76
2023/03/21 01:48:53;;;;;;;20.65;13.48;;;;;;;10.87;53.23;99467.66;4993349;28;20033;-75
2023/03/21 01:51:20;;;;;;;19.95;15.30;;;;;;;10.49;54.03;99399.06;4975358;28;20423;-76
2023/03/21 01:53:46;;;;;;;31.90;21.00;;;;;;;10.79;54.10;99436.03;4975105;28;20089;-76
2023/03/21 01:56:18;;;;;;;26.77;17.63;;;;;;;10.89;53.84;99446.31;4975521;28;20023;-76
2023/03/21 01:58:45;;;;;;;29.02;16.80;;;;;;;10.89;53.31;99439.22;4973689;28;20385;-76
2023/03/21 02:01:10;;;;;;;20.65;16.40;;;;;;;10.37;53.88;99362.72;4974795;28;20058;-76
2023/03/21 02:03:49;;;;;;;19.30;15.05;;;;;;;10.91;53.83;99449.59;4975365;28;20026;-75
2023/03/21 02:06:36;;;;;;;20.27;14.98;;;;;;;10.88;53.71;99447.34;4975439;28;20019;-76
2023/03/21 02:09:08;;;;;;;24.10;15.63;;;;;;;10.83;53.94;99446.06;4974732;28;20061;-76
2023/03/21 02:11:34;;;;;;;25.80;17.45;;;;;;;10.80;54.25;99446.41;4975223;28;20148;-76
2023/03/21 02:14:00;;;;;;;19.08;15.85;;;;;;;10.69;54.79;99425.75;4974904;28;20031;-76
2023/03/21 02:16:42;;;;;;;18.67;14.65;;;;;;;10.29;54.81;99366.25;4974949;28;20027;-76
2023/03/21 02:19:23;;;;;;;23.05;14.55;;;;;;;10.73;54.49;99442.88;4974810;28;20061;-75
2023/03/21 02:22:10;;;;;;;20.23;15.00;;;;;;;10.73;54.63;99442.03;4974755;28;20038;-76
2023/03/21 02:25:03;;;;;;;21.90;15.93;;;;;;;10.75;54.80;99440.03;4974861;28;20058;-75
2023/03/21 02:27:35;;;;;;;24.17;15.52;;;;;;;10.76;54.17;99442.50;4974908;28;20023;-76
2023/03/21 02:30:07;;;;;;;;;;;;;;;10.63;54.89;99437.03;4975126;28;20033;-75
2023/03/21 02:33:10;;;;;;;19.75;13.55;;;;;;;10.67;54.84;99446.22;4974772;28;19910;-76
2023/03/21 02:36:06;;;;;;;19.85;13.48;;;;;;;10.67;54.28;99437.50;4974521;28;20416;-76
2023/03/21 02:38:40;;;;;;;17.92;12.95;;;;;;;10.67;55.11;99435.66;4973332;28;20031;-77
2023/03/21 02:41:16;;;;;;;16.55;13.60;;;;;;;10.39;54.77;99395.84;4974621;28;20518;-76
2023/03/21 02:43:49;;;;;;;19.58;14.05;;;;;;;10.64;54.75;99436.03;4974605;28;20027;-76
2023/03/21 02:46:21;;;;;;;17.80;14.18;;;;;;;10.62;55.07;99426.66;4974460;28;20078;-76
2023/03/21 02:49:17;;;;;;;17.35;13.38;;;;;;;10.03;55.24;99356.09;4974373;28;20023;-75
2023/03/21 02:51:44;;;;;;;16.95;13.55;;;;;;;10.22;54.58;99367.16;4974179;28;20420;-77
2023/03/21 02:54:15;;;;;;;16.83;13.32;;;;;;;10.07;54.84;99333.63;4973948;28;20035;-76
2023/03/21 02:56:41;;;;;;;19.55;14.05;;;;;;;10.65;54.74;99428.94;4974058;28;20034;-76
2023/03/21 02:59:08;;;;;;;19.73;14.02;;;;;;;9.99;55.38;99311.78;4974020;28;20052;-76
2023/03/21 03:01:34;;;;;;;20.75;15.68;;;;;;;10.24;55.32;99347.50;4973945;28;20023;-76
2023/03/21 03:03:59;;;;;;;21.05;15.32;;;;;;;10.72;54.95;99421.91;4974135;28;20031;-75
2023/03/21 03:06:32;;;;;;;20.58;15.02;;;;;;;10.69;55.11;99417.81;4974109;28;20086;-76
2023/03/21 03:09:00;;;;;;;19.73;14.77;;;;;;;10.72;54.92;99417.47;4973905;28;20025;-76
2023/03/21 03:11:31;;;;;;;19.92;15.15;;;;;;;10.73;55.12;99424.38;4974220;28;20496;-76
2023/03/21 03:14:34;;;;;;;15.75;13.68;;;;;;;10.71;55.77;99418.47;4973897;28;20420;-76
2023/03/21 03:17:14;;;;;;;18.20;13.75;;;;;;;10.76;55.68;99424.03;4973834;28;20038;-76
2023/03/21 03:20:05;;;;;;;19.73;14.32;;;;;;;10.76;55.35;99416.09;4973820;28;20075;-76
2023/03/21 03:22:52;;;;;;;19.45;14.10;;;;;;;10.79;55.79;99417.56;4973648;28;20015;-76
2023/03/21 03:25:36;;;;;;;20.58;15.18;;;;;;;10.54;55.25;99377.41;4973503;28;20081;-75
2023/03/21 03:28:05;;;;;;;22.63;15.57;;;;;;;10.85;55.58;99410.72;4973457;28;20436;-75
2023/03/21 03:30:30;;;;;;;23.77;16.35;;;;;;;10.88;55.26;99420.91;4988388;28;20027;-75
2023/03/21 03:33:01;;;;;;;19.13;15.63;;;;;;;10.60;55.56;99381.13;4973424;28;20435;-76
2023/03/21 03:35:27;;;;;;;23.60;16.48;;;;;;;10.86;55.51;99423.75;4973615;28;20033;-76
2023/03/21 03:37:57;;;;;;;23.27;15.82;;;;;;;10.42;55.70;99344.53;4973302;28;20027;-75
2023/03/21 03:40:47;;;;;;;22.08;16.90;;;;;;;10.38;55.79;99336.13;4988215;28;20039;-76
2023/03/21 03:43:20;;;;;;;27.30;17.10;;;;;;;10.90;55.32;99413.63;4973431;28;20415;-75
2023/03/21 03:45:55;;;;;;;22.95;17.15;;;;;;;10.97;55.49;99433.03;4973349;28;20435;-75
2023/03/21 03:48:54;;;;;;;23.83;17.67;;;;;;;10.99;55.28;99426.56;4973346;28;20185;-75
2023/03/21 03:51:32;;;;;;;28.38;18.95;;;;;;;10.94;55.11;99417.53;4973184;28;20046;-75
2023/03/21 03:54:02;;;;;;;23.98;16.75;;;;;;;10.97;54.97;99435.66;4973021;28;20046;-75
2023/03/21 03:56:28;;;;;;;25.10;17.95;;;;;;;10.53;55.45;99369.66;4971685;28;20027;-75
2023/03/21 03:58:55;;;;;;;23.92;17.90;;;;;;;10.95;54.94;99443.78;4972970;28;20027;-73
2023/03/21 04:01:21;;;;;;;23.77;17.75;;;;;;;10.37;54.95;99354.78;4972821;28;20073;-73
2023/03/21 04:03:50;;;;;;;22.98;16.50;;;;;;;10.42;55.09;99370.94;4972994;28;20078;-74
2023/03/21 04:06:17;;;;;;;20.27;15.82;;;;;;;10.82;55.02;99438.31;4972938;28;20416;-77
2023/03/21 04:08:43;;;;;;;21.20;16.05;;;;;;;10.39;55.41;99377.38;4973051;28;20126;-74
2023/03/21 04:11:09;;;;;;;20.30;16.90;;;;;;;10.58;55.43;99423.56;4972870;28;20022;-76
2023/03/21 04:13:35;;;;;;;21.10;16.73;;;;;;;10.55;55.60;99438.94;4972399;28;20031;-75
2023/03/21 04:16:01;;;;;;;25.67;19.25;;;;;;;10.49;55.84;99429.91;4972602;28;20031;-75
2023/03/21 04:18:27;;;;;;;26.65;20.98;;;;;;;10.52;55.83;99442.75;4972726;28;20102;-75
2023/03/21 04:20:52;;;;;;;29.20;20.23;;;;;;;10.23;55.90;99389.91;4987480;28;20173;-75
2023/03/21 04:23:19;;;;;;;27.50;17.70;;;;;;;10.53;56.08;99435.66;4987534;28;20037;-75
2023/03/21 04:25:45;;;;;;;24.65;17.58;;;;;;;10.32;56.70;99420.50;4972642;28;20096;-75
2023/03/21 04:28:11;;;;;;;25.42;17.58;;;;;;;10.47;56.25;99445.94;4972639;28;20588;-75
2023/03/21 04:30:37;;;;;;;25.02;18.15;;;;;;;10.46;56.04;99440.84;4987496;28;20118;-75
2023/03/21 04:33:03;;;;;;;25.80;18.83;;;;;;;10.54;56.25;99451.31;4972619;28;20042;-75
2023/03/21 04:35:29;;;;;;;27.63;20.25;;;;;;;10.04;56.18;99359.53;4972363;28;20030;-75
2023/03/21 04:37:55;;;;;;;34.05;23.35;;;;;;;10.43;55.80;99422.72;4972341;28;20558;-74
2023/03/21 04:40:21;;;;;;;27.80;21.10;;;;;;;10.67;55.69;99446.22;4972473;28;20069;-74
2023/03/21 04:42:47;;;;;;;27.92;21.20;;;;;;;10.70;55.73;99445.88;4971110;28;20035;-75
2023/03/21 04:45:15;;;;;;;25.15;19.98;;;;;;;10.70;55.96;99450.34;4972437;28;20033;-75
2023/03/21 04:47:41;;;;;;;27.15;19.98;;;;;;;10.18;55.71;99362.22;4972470;28;20415;-75
2023/03/21 04:50:08;;;;;;;27.55;20.95;;;;;;;10.74;56.03;99464.81;4972421;28;20085;-74
2023/03/21 04:52:33;;;;;;;28.42;21.90;;;;;;;10.41;55.43;99390.41;4987318;28;20031;-75
2023/03/21 04:54:59;;;;;;;31.40;21.15;;;;;;;10.32;56.54;99379.09;4972436;28;20463;-75
2023/03/21 04:57:25;;;;;;;28.42;21.08;;;;;;;10.42;56.27;99394.69;4972471;28;20027;-74
2023/03/21 04:59:51;;;;;;;45.72;30.65;;;;;;;10.33;56.03;99379.91;4972203;28;20054;-75
2023/03/21 05:02:16;;;;;;;67.60;45.97;;;;;;;10.27;56.76;99368.25;4987014;28;20085;-74
2023/03/21 05:04:42;;;;;;;87.82;57.90;;;;;;;10.26;56.98;99366.63;4972304;28;20023;-75
2023/03/21 05:07:08;;;;;;;74.32;49.22;;;;;;;10.70;56.82;99445.88;4972225;28;20460;-74
2023/03/21 05:09:33;;;;;;;46.28;33.22;;;;;;;10.24;56.76;99397.63;4986962;28;20635;-75
2023/03/21 05:11:59;;;;;;;39.22;26.95;;;;;;;10.69;56.96;99441.59;4972035;28;20034;-74
2023/03/21 05:14:25;;;;;;;35.13;25.80;;;;;;;10.79;57.42;99457.16;4972203;28;20022;-75
2023/03/21 05:16:55;;;;;;;37.38;25.50;;;;;;;10.85;56.86;99447.69;4972147;28;20023;-75
2023/03/21 05:19:33;;;;;;;37.70;26.02;;;;;;;10.38;56.83;99372.25;4972222;28;20034;-75
2023/03/21 05:22:07;;;;;;;36.75;24.80;;;;;;;10.46;56.77;99388.88;4972083;28;20106;-75
2023/03/21 05:24:32;;;;;;;35.42;24.70;;;;;;;10.45;57.25;99376.66;4971957;28;20113;-76
2023/03/21 05:27:02;;;;;;;36.75;24.40;;;;;;;10.65;56.82;99410.44;4974488;28;20105;-75
2023/03/21 05:29:32;;;;;;;35.42;26.42;;;;;;;10.96;56.70;99471.00;4975643;28;20030;-74
2023/03/21 05:31:59;;;;;;;32.55;23.83;;;;;;;10.85;57.17;99458.25;4975548;28;20577;-74
2023/03/21 05:34:25;;;;;;;29.85;23.52;;;;;;;10.81;56.99;99486.84;4975663;28;20026;-76
2023/03/21 05:36:51;;;;;;;57.72;38.97;;;;;;;10.81;56.74;99485.03;4975557;28;20027;-76
2023/03/21 05:39:16;;;;;;;39.00;27.77;;;;;;;10.26;57.12;99414.09;4990654;28;20038;-76
2023/03/21 05:41:42;;;;;;;41.58;30.42;;;;;;;10.28;57.25;99395.47;4975647;28;20034;-74
2023/03/21 05:44:07;;;;;;;45.08;29.42;;;;;;;10.89;56.62;99476.19;4975539;28;20027;-77
2023/03/21 05:46:33;;;;;;;39.03;27.10;;;;;;;10.86;57.22;99459.91;4990480;28;20029;-76
2023/03/21 05:48:58;;;;;;;38.55;27.83;;;;;;;10.58;57.25;99410.34;4975539;28;20105;-76
2023/03/21 05:51:23;;;;;;;39.22;28.55;;;;;;;11.10;56.99;99504.53;4974075;28;20035;-77
2023/03/21 05:53:49;;;;;;;41.03;29.60;;;;;;;10.73;57.39;99431.47;4974004;28;20550;-76
2023/03/21 05:56:15;;;;;;;43.15;28.65;;;;;;;10.54;57.40;99403.81;4975365;28;20054;-74
2023/03/21 05:58:40;;;;;;;36.47;26.05;;;;;;;11.25;57.71;99494.81;4975221;28;20037;-76
2023/03/21 06:01:06;;;;;;;35.55;26.42;;;;;;;11.31;56.98;99490.63;4975038;28;20050;-76
2023/03/21 06:03:32;;;;;;;39.28;26.90;;;;;;;11.22;57.46;99474.03;4975144;28;20467;-75
2023/03/21 06:05:57;;;;;;;36.60;25.95;;;;;;;11.21;57.38;99459.19;4975203;28;20058;-76
2023/03/21 06:08:23;;;;;;;32.20;25.10;;;;;;;11.19;57.50;99453.25;4989940;28;20105;-76
2023/03/21 06:10:48;;;;;;;36.50;25.70;;;;;;;11.23;57.64;99472.22;4975085;28;20035;-75
2023/03/21 06:13:14;;;;;;;37.95;27.67;;;;;;;10.98;57.69;99424.91;4973652;28;20074;-75
2023/03/21 06:15:40;;;;;;;41.85;28.67;;;;;;;11.31;58.29;99477.41;4974410;28;20070;-76
2023/03/21 06:18:05;;;;;;;37.42;28.08;;;;;;;11.46;58.15;99494.88;4989779;28;20027;-75
2023/03/21 06:20:31;;;;;;;36.30;28.20;;;;;;;11.44;57.91;99483.66;4974656;28;20088;-75
2023/03/21 06:22:56;;;;;;;39.75;29.45;;;;;;;11.48;58.16;99472.72;4974741;28;20462;-75
2023/03/21 06:25:22;;;;;;;41.30;28.60;;;;;;;11.01;58.55;99390.22;4974592;28;20021;-75
2023/03/21 06:27:47;;;;;;;42.50;28.08;;;;;;;11.72;57.21;99485.63;4974593;28;20038;-75
2023/03/21 06:30:13;;;;;;;42.03;30.00;;;;;;;11.36;57.62;99417.69;4974132;28;20039;-75
2023/03/21 06:32:38;;;;;;;43.50;29.15;;;;;;;11.87;57.68;99494.34;4972426;28;20022;-75
2023/03/21 06:35:04;;;;;;;40.45;28.02;;;;;;;11.50;57.53;99408.06;4971276;28;20031;-75
2023/03/21 06:37:30;;;;;;;40.47;27.83;;;;;;;12.06;57.58;99493.75;4982897;28;20031;-75
2023/03/21 06:39:55;;;;;;;41.72;30.67;;;;;;;12.04;57.12;99476.44;4972774;28;20038;-75
2023/03/21 06:42:20;;;;;;;42.83;32.38;;;;;;;11.63;57.36;99389.69;4972922;28;20034;-75
2023/03/21 06:44:46;;;;;;;43.00;32.95;;;;;;;12.18;57.18;99462.31;4975517;28;20525;-75
2023/03/21 06:47:11;;;;;;;52.17;33.58;;;;;;;11.49;56.95;99411.72;4974123;28;20042;-75
2023/03/21 06:49:37;;;;;;;38.75;28.95;;;;;;;11.98;57.38;99434.84;4973662;28;20025;-76
2023/03/21 06:52:02;;;;;;;38.50;29.35;;;;;;;12.35;57.13;99461.03;4957947;28;20605;-77
2023/03/21 06:54:28;;;;;;;41.70;30.05;;;;;;;12.17;57.59;99428.91;4973867;28;20031;-76
2023/03/21 06:56:53;;;;;;;35.25;26.45;;;;;;;12.35;57.31;99447.81;4972648;28;20037;-76
2023/03/21 06:59:20;;;;;;;38.53;29.10;;;;;;;12.59;57.47;99469.56;4973360;28;20058;-77
2023/03/21 07:01:45;;;;;;;33.05;26.30;;;;;;;12.56;57.71;99452.22;4973258;28;20150;-76
2023/03/21 07:04:11;;;;;;;34.47;24.88;;;;;;;12.16;57.09;99378.81;4973463;28;20582;-75
2023/03/21 07:06:37;;;;;;;37.20;25.95;;;;;;;12.01;57.48;99350.63;4973899;28;20050;-76
2023/03/21 07:09:04;;;;;;;36.45;27.58;;;;;;;12.26;57.43;99380.13;4964989;28;20026;-76
2023/03/21 07:11:30;;;;;;;36.60;27.25;;;;;;;13.04;57.20;99489.47;4969844;28;20411;-76
2023/03/21 07:13:56;;;;;;;39.00;29.10;;;;;;;12.70;56.88;99424.84;4971322;28;20118;-76
2023/03/21 07:16:21;;;;;;;37.20;26.45;;;;;;;13.20;57.05;99488.34;4973108;28;20492;-75
2023/03/21 07:18:47;;;;;;;37.63;25.58;;;;;;;12.84;56.83;99417.78;4988625;28;20113;-77
2023/03/21 07:21:13;;;;;;;36.25;27.17;;;;;;;13.14;56.62;99441.38;4973657;28;20093;-76
2023/03/21 07:23:38;;;;;;;36.15;26.95;;;;;;;12.85;56.43;99392.94;4972289;28;20530;-76
2023/03/21 07:26:05;;;;;;;36.42;27.45;;;;;;;13.50;56.70;99481.78;4972995;28;20105;-76
2023/03/21 07:28:31;;;;;;;37.30;27.27;;;;;;;13.15;56.08;99408.56;4985814;28;20033;-76
2023/03/21 07:30:58;;;;;;;33.50;26.45;;;;;;;13.55;56.34;99479.34;4970197;28;20030;-76
2023/03/21 07:33:24;;;;;;;34.42;24.95;;;;;;;13.58;56.50;99478.13;4966732;28;20031;-76
2023/03/21 07:35:51;;;;;;;40.17;28.13;;;;;;;13.08;56.56;99394.47;4971655;28;20031;-76
2023/03/21 07:38:18;;;;;;;36.22;27.73;;;;;;;13.51;56.33;99464.03;4972419;28;20023;-76
2023/03/21 07:40:45;;;;;;;37.20;28.20;;;;;;;13.63;56.62;99473.88;4985560;28;20039;-76
2023/03/21 07:43:11;;;;;;;37.38;28.15;;;;;;;13.52;56.39;99444.44;4972079;28;20037;-75
2023/03/21 07:45:36;;;;;;;41.83;29.52;;;;;;;13.29;56.52;99410.28;4972206;28;20405;-76
2023/03/21 07:48:02;;;;;;;34.60;25.10;;;;;;;13.76;56.55;99493.50;4971724;28;20054;-75
2023/03/21 07:50:27;;;;;;;32.83;24.23;;;;;;;13.52;56.56;99444.44;4987234;28;20027;-75
2023/03/21 07:52:53;;;;;;;35.00;25.88;;;;;;;13.73;56.15;99462.06;4971507;28;20041;-77
2023/03/21 07:55:18;;;;;;;31.17;23.15;;;;;;;13.90;56.27;99472.09;4986300;28;20030;-76
2023/03/21 07:57:45;;;;;;;32.75;24.67;;;;;;;13.50;56.12;99398.75;4970751;28;20472;-76
2023/03/21 08:00:11;;;;;;;35.00;24.58;;;;;;;13.63;55.99;99418.16;4971512;28;20054;-76
2023/03/21 08:02:37;;;;;;;36.20;29.02;;;;;;;13.55;55.84;99398.97;4970714;28;20031;-76
2023/03/21 08:05:03;;;;;;;31.90;24.75;;;;;;;13.79;55.92;99427.56;4971753;28;20042;-75
2023/03/21 08:07:29;;;;;;;27.85;23.73;;;;;;;14.15;55.54;99482.19;4971951;28;20030;-81
2023/03/21 08:09:55;;;;;;;32.70;22.38;;;;;;;14.00;55.57;99450.47;4972394;28;20031;-82
2023/03/21 08:12:20;;;;;;;30.40;23.48;;;;;;;14.33;55.35;99474.44;4972069;28;20045;-82
2023/03/21 08:14:46;;;;;;;30.13;24.90;;;;;;;13.75;55.28;99378.59;4972213;28;20094;-83
2023/03/21 08:17:11;;;;;;;31.40;23.50;;;;;;;14.01;55.07;99420.25;4986991;28;20081;-80
2023/03/21 08:19:37;;;;;;;33.88;25.42;;;;;;;14.17;55.21;99408.44;4971133;28;20109;-77
2023/03/21 08:22:04;;;;;;;28.48;22.92;;;;;;;14.26;55.05;99412.53;4986725;28;20030;-78
2023/03/21 08:24:30;;;;;;;31.90;24.20;;;;;;;14.58;54.98;99462.19;4971699;28;20597;-76
2023/03/21 08:26:56;;;;;;;33.38;25.33;;;;;;;14.31;55.04;99400.28;4970708;28;20023;-77
2023/03/21 08:29:23;;;;;;;32.70;23.25;;;;;;;14.83;54.96;99458.88;4971976;28;20102;-77
2023/03/21 08:31:49;;;;;;;33.05;21.52;;;;;;;14.90;54.73;99454.41;4972143;28;20023;-77
2023/03/21 08:34:16;;;;;;;25.13;19.63;;;;;;;14.87;54.47;99446.84;4972050;28;20033;-78
2023/03/21 08:36:42;;;;;;;26.58;20.90;;;;;;;14.26;54.07;99333.69;4971067;28;20102;-79
2023/03/21 08:39:08;;;;;;;24.45;19.10;;;;;;;14.93;53.86;99433.53;4972044;28;20023;-77
2023/03/21 08:41:36;;;;;;;28.10;22.38;;;;;;;14.60;53.44;99387.59;4971938;28;20050;-78
2023/03/21 08:44:04;;;;;;;22.92;17.23;;;;;;;15.06;52.97;99442.50;4972087;28;20030;-77
2023/03/21 08:46:30;;;;;;;22.40;17.58;;;;;;;15.24;52.54;99445.28;4972258;28;20385;-78
2023/03/21 08:48:55;;;;;;;25.55;18.83;;;;;;;15.03;52.73;99385.22;4972366;28;20023;-78
2023/03/21 08:51:21;;;;;;;28.55;19.80;;;;;;;14.89;52.39;99349.09;4971430;28;20027;-77
2023/03/21 08:53:49;;;;;;;25.48;18.48;;;;;;;15.60;52.42;99435.94;4971584;28;20030;-78
2023/03/21 08:56:15;;;;;;;26.70;20.38;;;;;;;15.67;52.42;99434.91;4971289;28;20050;-77
2023/03/21 08:58:41;;;;;;;30.73;25.30;;;;;;;15.25;52.01;99361.81;4971607;28;20504;-77
2023/03/21 09:01:09;;;;;;;34.03;26.90;;;;;;;15.48;52.13;99423.28;4986167;28;20536;-77
2023/03/21 09:03:35;;;;;;;26.70;22.02;;;;;;;15.57;52.29;99384.78;4990374;28;20174;-78
2023/03/21 09:06:02;;;;;;;28.70;22.38;;;;;;;15.32;52.34;99343.16;4990934;28;20739;-77
2023/03/21 09:08:27;;;;;;;29.52;22.85;;;;;;;15.81;52.34;99398.38;4975662;28;20503;-77
2023/03/21 09:10:54;;;;;;;26.05;20.40;;;;;;;16.05;52.26;99418.06;4975899;28;20038;-77
2023/03/21 09:13:20;;;;;;;25.75;20.23;;;;;;;15.81;51.80;99358.44;4974774;28;20022;-78
2023/03/21 09:15:45;;;;;;;28.30;20.10;;;;;;;16.32;51.93;99416.81;4974543;28;20023;-78
2023/03/21 09:18:17;;;;;;;27.23;22.63;;;;;;;16.13;51.53;99361.88;4974086;28;20421;-78
2023/03/21 09:20:44;;;;;;;31.67;22.92;;;;;;;16.60;51.11;99419.06;4974592;28;20030;-78
2023/03/21 09:23:10;;;;;;;26.85;20.65;;;;;;;16.40;50.72;99354.47;4974326;28;20040;-78
2023/03/21 09:25:37;;;;;;;21.75;18.52;;;;;;;16.47;50.26;99353.38;4987015;28;20050;-78
2023/03/21 09:28:04;;;;;;;23.40;18.83;;;;;;;16.66;50.18;99374.75;4973076;28;20544;-78
2023/03/21 09:30:34;;;;;;;25.65;18.65;;;;;;;16.33;50.48;99322.53;4973033;28;20416;-78
2023/03/21 09:33:00;;;;;;;20.77;17.67;;;;;;;16.74;50.60;99399.25;4971713;28;20508;-78
2023/03/21 09:35:27;;;;;;;24.58;18.05;;;;;;;16.53;50.68;99359.66;4972114;28;20492;-78
2023/03/21 09:37:53;;;;;;;23.75;18.45;;;;;;;16.86;50.53;99414.53;4969421;28;20582;-77
2023/03/21 09:40:28;;;;;;;25.20;18.35;;;;;;;16.53;50.36;99327.69;4974260;28;20030;-78
2023/03/21 09:43:24;;;;;;;22.05;16.73;;;;;;;16.69;50.40;99356.44;4973603;28;20420;-77
2023/03/21 09:46:23;;;;;;;22.42;16.95;;;;;;;16.89;50.29;99404.22;4972162;28;20105;-77
2023/03/21 09:48:58;;;;;;;17.70;14.93;;;;;;;16.88;50.33;99391.13;4972101;28;20054;-77
2023/03/21 09:51:33;;;;;;;21.75;16.58;;;;;;;16.55;49.90;99348.78;4974503;28;20029;-77
2023/03/21 09:54:04;;;;;;;25.98;17.90;;;;;;;16.94;50.10;99388.38;4973889;28;20054;-78
2023/03/21 09:56:30;;;;;;;26.80;19.02;;;;;;;16.91;50.07;99388.81;4973516;28;20062;-78
2023/03/21 09:58:58;;;;;;;23.08;18.25;;;;;;;16.86;50.19;99378.00;4974246;28;20062;-78
2023/03/21 10:01:31;;;;;;;27.95;20.05;;;;;;;16.83;50.42;99376.59;4972730;28;20503;-78
2023/03/21 10:03:59;;;;;;;22.95;16.67;;;;;;;16.85;50.31;99387.03;4974110;28;20038;-78
2023/03/21 10:06:29;;;;;;;25.33;19.15;;;;;;;16.87;50.34;99378.81;4974844;28;20502;-78
2023/03/21 10:09:07;;;;;;;24.98;18.10;;;;;;;16.72;50.52;99376.53;4972923;28;20151;-79
2023/03/21 10:11:45;;;;;;;23.90;17.30;;;;;;;16.81;50.53;99393.84;4973275;28;20031;-79
2023/03/21 10:14:33;;;;;;;25.85;20.02;;;;;;;16.58;50.17;99362.50;4972958;28;20027;-78
2023/03/21 10:17:26;;;;;;;27.30;19.75;;;;;;;16.64;50.47;99377.59;4973469;28;20574;-78
2023/03/21 10:20:13;;;;;;;24.75;17.50;;;;;;;16.77;50.60;99409.47;4977535;28;20078;-78
2023/03/21 10:22:39;;;;;;;28.90;19.08;;;;;;;16.79;49.94;99396.75;4972960;28;20165;-78
2023/03/21 10:25:06;;;;;;;30.23;24.67;;;;;;;16.81;50.37;99388.53;4968988;28;20037;-78
2023/03/21 10:27:35;;;;;;;24.98;18.30;;;;;;;16.72;50.38;99384.50;4979481;28;20023;-78
2023/03/21 10:30:06;;;;;;;21.67;17.00;;;;;;;16.42;50.05;99320.44;4977243;28;20046;-78
2023/03/21 10:32:32;;;;;;;25.05;17.52;;;;;;;16.82;50.04;99387.47;4986948;28;20516;-77
2023/03/21 10:34:58;;;;;;;25.38;16.48;;;;;;;16.86;49.99;99378.00;4973238;28;20037;-78
2023/03/21 10:37:24;;;;;;;25.70;17.63;;;;;;;16.71;49.98;99346.38;4973436;28;20057;-78
2023/03/21 10:39:52;;;;;;;26.60;17.75;;;;;;;16.50;49.77;99307.63;4973677;28;20035;-78
2023/03/21 10:42:26;;;;;;;22.58;17.15;;;;;;;16.27;50.12;99274.66;4976892;28;20526;-78
2023/03/21 10:44:53;;;;;;;25.30;18.25;;;;;;;16.91;50.17;99364.81;4972158;28;20058;-78
2023/03/21 10:47:26;;;;;;;28.13;16.35;;;;;;;16.42;50.00;99275.13;4971836;28;20026;-78
2023/03/21 10:49:51;;;;;;;22.83;17.83;;;;;;;16.89;49.87;99331.41;4973504;28;20039;-78
2023/03/21 10:52:20;;;;;;;28.60;20.88;;;;;;;16.88;49.96;99319.13;4973692;28;20023;-77
2023/03/21 10:54:47;;;;;;;35.65;25.77;;;;;;;17.09;49.71;99335.47;4973301;28;20026;-78
2023/03/21 10:57:20;;;;;;;23.42;19.33;;;;;;;17.13;49.50;99331.31;4973592;28;20154;-78
2023/03/21 10:59:54;;;;;;;25.13;18.08;;;;;;;16.96;49.38;99292.94;4973674;28;20046;-78
2023/03/21 11:02:30;;;;;;;23.92;17.65;;;;;;;17.23;49.14;99328.09;4971032;28;20035;-78
2023/03/21 11:05:04;;;;;;;21.58;16.83;;;;;;;17.24;49.07;99316.41;4962784;28;20054;-78
2023/03/21 11:07:30;;;;;;;25.10;17.73;;;;;;;16.98;48.72;99295.38;4970269;28;20438;-78
2023/03/21 11:10:10;;;;;;;24.02;16.13;;;;;;;17.05;48.69;99256.09;4972476;28;20396;-78
2023/03/21 11:12:45;;;;;;;23.17;15.00;;;;;;;17.39;48.77;99315.97;4971183;28;20034;-78
2023/03/21 11:15:31;;;;;;;30.63;19.52;;;;;;;17.42;48.46;99302.19;4968809;28;20045;-78
2023/03/21 11:17:58;;;;;;;24.33;19.02;;;;;;;17.47;48.30;99313.00;4974146;28;20065;-78
2023/03/21 11:20:28;;;;;;;26.77;16.30;;;;;;;17.41;48.33;99290.69;4971896;28;20574;-78
2023/03/21 11:22:55;;;;;;;21.50;15.82;;;;;;;17.52;48.28;99297.09;4968920;28;20117;-78
2023/03/21 11:25:21;;;;;;;23.33;16.77;;;;;;;17.60;48.06;99299.44;4968408;28;20027;-78